sensor_id;sensor_type;location;lat;lon;timestamp;pressure;altitude;pressure_sealevel;temperature;humidity
34500;BME280;20745;50.882;6.962;2023-01-30T00:01:04;101426.41;;;4.60;100.00
34500;BME280;20745;50.882;6.962;2023-01-30T00:03:32;101419.94;;;4.63;100.00
34500;BME280;20745;50.882;6.962;2023-01-30T00:05:59;101423.84;;;4.59;100.00
34500;BME280;20745;50.882;6.962;2023-01-30T00:08:25;101418.25;;;4.62;100.00
34500;BME280;20745;50.882;6.962;2023-01-30T00:10:52;101418.13;;;4.63;100.00
34500;BME280;20745;50.882;6.962;2023-01-30T00:13:18;101415.19;;;4.66;100.00
34500;BME280;20745;50.882;6.962;2023-01-30T00:15:46;101393.66;;;4.68;100.00
34500;BME280;20745;50.882;6.962;2023-01-30T00:18:14;101387.84;;;4.63;100.00
34500;BME280;20745;50.882;6.962;2023-01-30T00:20:41;101376.63;;;4.69;100.00
34500;BME280;20745;50.882;6.962;2023-01-30T00:23:07;101374.94;;;4.68;100.00
34500;BME280;20745;50.882;6.962;2023-01-30T00:25:34;101374.75;;;4.60;100.00
34500;BME280;20745;50.882;6.962;2023-01-30T00:28:00;101372.06;;;4.60;100.00
34500;BME280;20745;50.882;6.962;2023-01-30T00:30:29;101373.38;;;4.65;100.00
34500;BME280;20745;50.882;6.962;2023-01-30T00:33:02;101364.50;;;4.65;100.00
34500;BME280;20745;50.882;6.962;2023-01-30T00:35:29;101366.19;;;4.66;100.00
34500;BME280;20745;50.882;6.962;2023-01-30T00:37:58;101367.91;;;4.67;100.00
34500;BME280;20745;50.882;6.962;2023-01-30T00:40:25;101380.75;;;4.73;100.00
34500;BME280;20745;50.882;6.962;2023-01-30T00:42:52;101365.59;;;4.83;100.00
34500;BME280;20745;50.882;6.962;2023-01-30T00:46:01;101360.72;;;4.88;100.00
34500;BME280;20745;50.882;6.962;2023-01-30T00:49:09;101355.38;;;4.88;100.00
34500;BME280;20745;50.882;6.962;2023-01-30T00:51:35;101347.34;;;4.88;100.00
34500;BME280;20745;50.882;6.962;2023-01-30T00:54:02;101343.00;;;4.87;100.00
34500;BME280;20745;50.882;6.962;2023-01-30T00:56:30;101345.06;;;4.83;100.00
34500;BME280;20745;50.882;6.962;2023-01-30T00:58:56;101342.84;;;4.88;100.00
34500;BME280;20745;50.882;6.962;2023-01-30T01:01:23;101336.66;;;4.88;100.00
34500;BME280;20745;50.882;6.962;2023-01-30T01:03:50;101329.22;;;4.91;100.00
34500;BME280;20745;50.882;6.962;2023-01-30T01:06:16;101325.41;;;4.94;100.00
34500;BME280;20745;50.882;6.962;2023-01-30T01:08:44;101314.47;;;4.97;100.00
34500;BME280;20745;50.882;6.962;2023-01-30T01:11:10;101308.13;;;4.98;100.00
34500;BME280;20745;50.882;6.962;2023-01-30T01:13:52;101302.50;;;5.01;100.00
34500;BME280;20745;50.882;6.962;2023-01-30T01:16:40;101312.09;;;5.03;100.00
34500;BME280;20745;50.882;6.962;2023-01-30T01:19:07;101316.91;;;5.09;100.00
34500;BME280;20745;50.882;6.962;2023-01-30T01:21:35;101309.31;;;5.14;100.00
34500;BME280;20745;50.882;6.962;2023-01-30T01:24:01;101313.31;;;5.20;100.00
34500;BME280;20745;50.882;6.962;2023-01-30T01:26:46;101318.59;;;5.31;100.00
34500;BME280;20745;50.882;6.962;2023-01-30T01:29:31;101304.66;;;5.37;100.00
34500;BME280;20745;50.882;6.962;2023-01-30T01:32:05;101295.09;;;5.44;100.00
34500;BME280;20745;50.882;6.962;2023-01-30T01:34:50;101309.94;;;5.48;100.00
34500;BME280;20745;50.882;6.962;2023-01-30T01:37:35;101307.13;;;5.50;100.00
34500;BME280;20745;50.882;6.962;2023-01-30T01:40:05;101297.13;;;5.52;100.00
34500;BME280;20745;50.882;6.962;2023-01-30T01:42:50;101299.38;;;5.56;100.00
34500;BME280;20745;50.882;6.962;2023-01-30T01:45:21;101293.47;;;5.62;100.00
34500;BME280;20745;50.882;6.962;2023-01-30T01:47:54;101293.34;;;5.64;100.00
34500;BME280;20745;50.882;6.962;2023-01-30T01:53:22;101290.25;;;5.68;100.00
34500;BME280;20745;50.882;6.962;2023-01-30T01:55:51;101283.06;;;5.69;100.00
34500;BME280;20745;50.882;6.962;2023-01-30T01:58:21;101277.59;;;5.70;100.00
34500;BME280;20745;50.882;6.962;2023-01-30T02:00:49;101285.50;;;5.72;100.00
34500;BME280;20745;50.882;6.962;2023-01-30T02:03:18;101280.13;;;5.72;100.00
34500;BME280;20745;50.882;6.962;2023-01-30T02:05:47;101263.31;;;5.70;100.00
34500;BME280;20745;50.882;6.962;2023-01-30T02:08:16;101261.50;;;5.70;100.00
34500;BME280;20745;50.882;6.962;2023-01-30T02:13:10;101251.59;;;5.71;100.00
34500;BME280;20745;50.882;6.962;2023-01-30T02:15:40;101241.03;;;5.69;100.00
34500;BME280;20745;50.882;6.962;2023-01-30T02:18:07;101245.41;;;5.70;100.00
34500;BME280;20745;50.882;6.962;2023-01-30T02:25:53;101215.50;;;5.75;100.00
34500;BME280;20745;50.882;6.962;2023-01-30T02:39:05;101214.84;;;5.82;100.00
34500;BME280;20745;50.882;6.962;2023-01-30T02:41:35;101213.41;;;5.78;100.00
34500;BME280;20745;50.882;6.962;2023-01-30T02:44:13;101201.56;;;5.81;100.00
34500;BME280;20745;50.882;6.962;2023-01-30T02:46:48;101193.41;;;5.82;100.00
34500;BME280;20745;50.882;6.962;2023-01-30T02:49:18;101187.09;;;5.83;100.00
34500;BME280;20745;50.882;6.962;2023-01-30T02:51:46;101184.41;;;5.83;100.00
34500;BME280;20745;50.882;6.962;2023-01-30T02:54:14;101176.91;;;5.87;100.00
34500;BME280;20745;50.882;6.962;2023-01-30T02:56:42;101177.03;;;5.85;100.00
34500;BME280;20745;50.882;6.962;2023-01-30T02:59:09;101162.66;;;5.86;100.00
34500;BME280;20745;50.882;6.962;2023-01-30T03:01:50;101165.19;;;5.88;100.00
34500;BME280;20745;50.882;6.962;2023-01-30T03:04:44;101159.81;;;5.88;100.00
34500;BME280;20745;50.882;6.962;2023-01-30T03:15:32;101128.66;;;5.87;100.00
34500;BME280;20745;50.882;6.962;2023-01-30T03:17:59;101128.53;;;5.88;100.00
34500;BME280;20745;50.882;6.962;2023-01-30T03:20:26;101132.75;;;5.91;100.00
34500;BME280;20745;50.882;6.962;2023-01-30T03:22:53;101124.56;;;5.92;100.00
34500;BME280;20745;50.882;6.962;2023-01-30T03:25:23;101126.13;;;5.95;100.00
34500;BME280;20745;50.882;6.962;2023-01-30T03:27:52;101127.81;;;5.96;100.00
34500;BME280;20745;50.882;6.962;2023-01-30T03:30:19;101132.03;;;5.98;100.00
34500;BME280;20745;50.882;6.962;2023-01-30T03:32:48;101124.84;;;5.99;100.00
34500;BME280;20745;50.882;6.962;2023-01-30T03:35:15;101128.38;;;5.99;100.00
34500;BME280;20745;50.882;6.962;2023-01-30T03:37:58;101128.94;;;6.03;100.00
34500;BME280;20745;50.882;6.962;2023-01-30T03:40:25;101119.06;;;6.03;100.00
34500;BME280;20745;50.882;6.962;2023-01-30T03:42:51;101117.78;;;6.07;100.00
34500;BME280;20745;50.882;6.962;2023-01-30T03:45:17;101109.47;;;6.10;100.00
34500;BME280;20745;50.882;6.962;2023-01-30T03:47:44;101118.91;;;6.14;100.00
34500;BME280;20745;50.882;6.962;2023-01-30T03:50:11;101106.34;;;6.15;100.00
34500;BME280;20745;50.882;6.962;2023-01-30T03:52:37;101098.13;;;6.16;100.00
34500;BME280;20745;50.882;6.962;2023-01-30T03:55:03;101083.75;;;6.17;100.00
34500;BME280;20745;50.882;6.962;2023-01-30T03:57:30;101079.94;;;6.20;100.00
34500;BME280;20745;50.882;6.962;2023-01-30T03:59:56;101078.25;;;6.19;100.00
34500;BME280;20745;50.882;6.962;2023-01-30T04:02:23;101075.44;;;6.20;100.00
34500;BME280;20745;50.882;6.962;2023-01-30T04:04:51;101070.59;;;6.24;100.00
34500;BME280;20745;50.882;6.962;2023-01-30T04:07:18;101067.78;;;6.25;100.00
34500;BME280;20745;50.882;6.962;2023-01-30T04:09:45;101064.94;;;6.27;100.00
34500;BME280;20745;50.882;6.962;2023-01-30T04:12:11;101061.84;;;6.31;100.00
34500;BME280;20745;50.882;6.962;2023-01-30T04:14:38;101059.88;;;6.33;100.00
34500;BME280;20745;50.882;6.962;2023-01-30T04:17:04;101058.88;;;6.34;100.00
34500;BME280;20745;50.882;6.962;2023-01-30T04:19:30;101057.03;;;6.35;100.00
34500;BME280;20745;50.882;6.962;2023-01-30T04:21:57;101056.84;;;6.36;100.00
34500;BME280;20745;50.882;6.962;2023-01-30T04:24:23;101048.13;;;6.34;100.00
34500;BME280;20745;50.882;6.962;2023-01-30T04:26:49;101036.25;;;6.37;100.00
34500;BME280;20745;50.882;6.962;2023-01-30T04:29:16;101020.00;;;6.38;100.00
34500;BME280;20745;50.882;6.962;2023-01-30T04:31:42;101019.72;;;6.41;100.00
34500;BME280;20745;50.882;6.962;2023-01-30T04:34:08;101011.53;;;6.43;100.00
34500;BME280;20745;50.882;6.962;2023-01-30T04:36:35;101022.81;;;6.46;100.00
34500;BME280;20745;50.882;6.962;2023-01-30T04:39:02;101021.69;;;6.49;100.00
34500;BME280;20745;50.882;6.962;2023-01-30T04:41:29;101038.59;;;6.49;100.00
34500;BME280;20745;50.882;6.962;2023-01-30T04:43:56;101035.75;;;6.51;100.00
34500;BME280;20745;50.882;6.962;2023-01-30T04:46:22;101040.16;;;6.52;100.00
34500;BME280;20745;50.882;6.962;2023-01-30T04:48:49;101033.66;;;6.54;100.00
34500;BME280;20745;50.882;6.962;2023-01-30T04:51:15;101030.09;;;6.54;100.00
34500;BME280;20745;50.882;6.962;2023-01-30T04:53:41;101042.84;;;6.52;100.00
34500;BME280;20745;50.882;6.962;2023-01-30T04:56:17;101049.03;;;6.52;100.00
34500;BME280;20745;50.882;6.962;2023-01-30T04:58:43;101039.16;;;6.53;100.00
34500;BME280;20745;50.882;6.962;2023-01-30T05:01:13;101025.03;;;6.51;100.00
34500;BME280;20745;50.882;6.962;2023-01-30T05:03:40;101031.97;;;6.53;100.00
34500;BME280;20745;50.882;6.962;2023-01-30T05:06:09;101027.56;;;6.52;100.00
34500;BME280;20745;50.882;6.962;2023-01-30T05:08:35;101024.75;;;6.54;100.00
34500;BME280;20745;50.882;6.962;2023-01-30T05:11:01;101033.50;;;6.56;100.00
34500;BME280;20745;50.882;6.962;2023-01-30T05:13:28;101020.81;;;6.48;100.00
34500;BME280;20745;50.882;6.962;2023-01-30T05:15:56;101017.75;;;6.43;100.00
34500;BME280;20745;50.882;6.962;2023-01-30T05:18:23;101013.22;;;6.44;100.00
34500;BME280;20745;50.882;6.962;2023-01-30T05:20:49;101018.03;;;6.40;100.00
34500;BME280;20745;50.882;6.962;2023-01-30T05:23:16;101016.19;;;6.41;100.00
34500;BME280;20745;50.882;6.962;2023-01-30T05:25:42;101018.19;;;6.39;100.00
34500;BME280;20745;50.882;6.962;2023-01-30T05:28:23;101020.00;;;6.38;100.00
34500;BME280;20745;50.882;6.962;2023-01-30T05:30:49;101015.09;;;6.34;100.00
34500;BME280;20745;50.882;6.962;2023-01-30T05:33:16;101011.16;;;6.28;100.00
34500;BME280;20745;50.882;6.962;2023-01-30T05:35:46;101017.53;;;6.27;100.00
34500;BME280;20745;50.882;6.962;2023-01-30T05:38:12;101014.13;;;6.25;100.00
34500;BME280;20745;50.882;6.962;2023-01-30T05:40:39;101015.41;;;6.21;100.00
34500;BME280;20745;50.882;6.962;2023-01-30T05:43:05;101018.09;;;6.21;100.00
34500;BME280;20745;50.882;6.962;2023-01-30T05:45:31;101013.88;;;6.19;100.00
34500;BME280;20745;50.882;6.962;2023-01-30T05:47:58;101021.94;;;6.19;100.00
34500;BME280;20745;50.882;6.962;2023-01-30T05:50:27;101019.25;;;6.19;100.00
34500;BME280;20745;50.882;6.962;2023-01-30T05:52:53;101020.69;;;6.13;100.00
34500;BME280;20745;50.882;6.962;2023-01-30T05:55:20;101013.59;;;6.12;100.00
34500;BME280;20745;50.882;6.962;2023-01-30T05:57:46;101015.84;;;6.17;100.00
34500;BME280;20745;50.882;6.962;2023-01-30T06:00:13;101005.69;;;6.20;100.00
34500;BME280;20745;50.882;6.962;2023-01-30T06:02:39;101014.13;;;6.25;100.00
34500;BME280;20745;50.882;6.962;2023-01-30T06:05:06;101020.75;;;6.31;100.00
34500;BME280;20745;50.882;6.962;2023-01-30T06:07:32;101017.25;;;6.30;100.00
34500;BME280;20745;50.882;6.962;2023-01-30T06:09:59;101018.63;;;6.34;100.00
34500;BME280;20745;50.882;6.962;2023-01-30T06:12:25;101021.84;;;6.38;100.00
34500;BME280;20745;50.882;6.962;2023-01-30T06:14:51;101022.69;;;6.38;100.00
34500;BME280;20745;50.882;6.962;2023-01-30T06:17:19;101018.34;;;6.37;100.00
34500;BME280;20745;50.882;6.962;2023-01-30T06:19:48;101005.31;;;6.42;100.00
34500;BME280;20745;50.882;6.962;2023-01-30T06:22:14;101006.44;;;6.40;100.00
34500;BME280;20745;50.882;6.962;2023-01-30T06:24:41;101017.19;;;6.40;100.00
34500;BME280;20745;50.882;6.962;2023-01-30T06:27:07;101029.59;;;6.41;100.00
34500;BME280;20745;50.882;6.962;2023-01-30T06:29:34;101031.31;;;6.42;100.00
34500;BME280;20745;50.882;6.962;2023-01-30T06:32:00;101025.81;;;6.43;100.00
34500;BME280;20745;50.882;6.962;2023-01-30T06:34:27;101030.88;;;6.46;100.00
34500;BME280;20745;50.882;6.962;2023-01-30T06:36:53;101047.94;;;6.45;100.00
34500;BME280;20745;50.882;6.962;2023-01-30T06:39:19;101049.47;;;6.48;100.00
34500;BME280;20745;50.882;6.962;2023-01-30T06:41:46;101038.22;;;6.44;100.00
34500;BME280;20745;50.882;6.962;2023-01-30T06:44:12;101034.38;;;6.47;100.00
34500;BME280;20745;50.882;6.962;2023-01-30T06:46:38;101035.75;;;6.51;100.00
34500;BME280;20745;50.882;6.962;2023-01-30T06:49:05;101033.09;;;6.51;100.00
34500;BME280;20745;50.882;6.962;2023-01-30T06:51:33;101025.88;;;6.51;100.00
34500;BME280;20745;50.882;6.962;2023-01-30T06:54:05;101039.44;;;6.50;100.00
34500;BME280;20745;50.882;6.962;2023-01-30T06:56:32;101046.50;;;6.51;100.00
34500;BME280;20745;50.882;6.962;2023-01-30T06:58:58;101041.28;;;6.49;100.00
34500;BME280;20745;50.882;6.962;2023-01-30T07:01:24;101058.38;;;6.48;100.00
34500;BME280;20745;50.882;6.962;2023-01-30T07:03:54;101062.75;;;6.49;100.00
34500;BME280;20745;50.882;6.962;2023-01-30T07:06:20;101064.59;;;6.49;100.00
34500;BME280;20745;50.882;6.962;2023-01-30T07:08:47;101056.41;;;6.50;100.00
34500;BME280;20745;50.882;6.962;2023-01-30T07:11:15;101063.59;;;6.50;100.00
34500;BME280;20745;50.882;6.962;2023-01-30T07:13:44;101079.69;;;6.50;100.00
34500;BME280;20745;50.882;6.962;2023-01-30T07:16:10;101073.34;;;6.51;100.00
34500;BME280;20745;50.882;6.962;2023-01-30T07:18:38;101069.97;;;6.49;100.00
34500;BME280;20745;50.882;6.962;2023-01-30T07:21:04;101079.00;;;6.48;100.00
34500;BME280;20745;50.882;6.962;2023-01-30T07:23:31;101078.16;;;6.47;100.00
34500;BME280;20745;50.882;6.962;2023-01-30T07:25:57;101073.63;;;6.48;100.00
34500;BME280;20745;50.882;6.962;2023-01-30T07:28:24;101086.34;;;6.46;100.00
34500;BME280;20745;50.882;6.962;2023-01-30T07:30:50;101077.59;;;6.44;100.00
34500;BME280;20745;50.882;6.962;2023-01-30T07:33:18;101031.91;;;6.26;100.00
34500;BME280;20745;50.882;6.962;2023-01-30T07:35:45;101066.03;;;6.43;100.00
34500;BME280;20745;50.882;6.962;2023-01-30T07:38:13;101064.03;;;6.45;100.00
34500;BME280;20745;50.882;6.962;2023-01-30T07:40:40;101064.91;;;6.46;100.00
34500;BME280;20745;50.882;6.962;2023-01-30T07:43:10;101066.56;;;6.47;100.00
34500;BME280;20745;50.882;6.962;2023-01-30T07:45:59;101074.19;;;6.51;100.00
34500;BME280;20745;50.882;6.962;2023-01-30T07:48:46;101073.03;;;6.54;100.00
34500;BME280;20745;50.882;6.962;2023-01-30T07:51:31;101080.13;;;6.55;100.00
34500;BME280;20745;50.882;6.962;2023-01-30T07:54:03;101089.56;;;6.59;100.00
34500;BME280;20745;50.882;6.962;2023-01-30T07:56:48;101078.53;;;6.62;100.00
34500;BME280;20745;50.882;6.962;2023-01-30T07:59:33;101081.75;;;6.65;100.00
34500;BME280;20745;50.882;6.962;2023-01-30T08:02:09;101072.41;;;6.69;100.00
34500;BME280;20745;50.882;6.962;2023-01-30T08:04:36;101090.22;;;6.70;100.00
34500;BME280;20745;50.882;6.962;2023-01-30T08:07:05;101099.53;;;6.76;100.00
34500;BME280;20745;50.882;6.962;2023-01-30T08:09:34;101105.75;;;6.76;100.00
34500;BME280;20745;50.882;6.962;2023-01-30T08:12:02;101104.88;;;6.76;100.00
34500;BME280;20745;50.882;6.962;2023-01-30T08:14:29;101091.31;;;6.77;100.00
34500;BME280;20745;50.882;6.962;2023-01-30T08:16:55;101081.25;;;6.79;100.00
34500;BME280;20745;50.882;6.962;2023-01-30T08:19:22;101090.72;;;6.83;100.00
34500;BME280;20745;50.882;6.962;2023-01-30T08:21:51;101088.56;;;6.87;100.00
34500;BME280;20745;50.882;6.962;2023-01-30T08:24:18;101084.75;;;6.89;100.00
34500;BME280;20745;50.882;6.962;2023-01-30T08:26:47;101081.16;;;6.98;100.00
34500;BME280;20745;50.882;6.962;2023-01-30T08:29:14;101090.59;;;7.02;100.00
34500;BME280;20745;50.882;6.962;2023-01-30T08:31:41;101090.31;;;7.05;100.00
34500;BME280;20745;50.882;6.962;2023-01-30T08:34:07;101084.63;;;7.08;100.00
34500;BME280;20745;50.882;6.962;2023-01-30T08:36:34;101036.41;;;6.89;100.00
34500;BME280;20745;50.882;6.962;2023-01-30T08:39:00;101087.09;;;7.19;100.00
34500;BME280;20745;50.882;6.962;2023-01-30T08:41:26;101104.94;;;7.20;100.00
34500;BME280;20745;50.882;6.962;2023-01-30T08:43:53;101107.03;;;7.26;100.00
34500;BME280;20745;50.882;6.962;2023-01-30T08:46:20;101110.25;;;7.30;100.00
34500;BME280;20745;50.882;6.962;2023-01-30T08:48:47;101116.47;;;7.30;100.00
34500;BME280;20745;50.882;6.962;2023-01-30T08:51:15;101112.25;;;7.28;100.00
34500;BME280;20745;50.882;6.962;2023-01-30T08:53:42;101116.22;;;7.24;100.00
34500;BME280;20745;50.882;6.962;2023-01-30T08:56:11;101102.63;;;7.25;100.00
34500;BME280;20745;50.882;6.962;2023-01-30T08:58:37;101110.84;;;7.24;100.00
34500;BME280;20745;50.882;6.962;2023-01-30T09:01:04;101101.81;;;7.25;100.00
34500;BME280;20745;50.882;6.962;2023-01-30T09:03:31;101102.63;;;7.25;100.00
34500;BME280;20745;50.882;6.962;2023-01-30T09:05:57;101118.75;;;7.25;100.00
34500;BME280;20745;50.882;6.962;2023-01-30T09:08:23;101130.88;;;7.29;100.00
34500;BME280;20745;50.882;6.962;2023-01-30T09:10:50;101128.31;;;7.37;100.00
34500;BME280;20745;50.882;6.962;2023-01-30T09:13:16;101115.53;;;7.39;100.00
34500;BME280;20745;50.882;6.962;2023-01-30T09:15:43;101106.34;;;7.42;100.00
34500;BME280;20745;50.882;6.962;2023-01-30T09:18:12;101110.72;;;7.43;100.00
34500;BME280;20745;50.882;6.962;2023-01-30T09:20:39;101097.44;;;7.41;100.00
34500;BME280;20745;50.882;6.962;2023-01-30T09:23:05;101107.59;;;7.47;100.00
34500;BME280;20745;50.882;6.962;2023-01-30T09:25:34;101118.19;;;7.49;100.00
34500;BME280;20745;50.882;6.962;2023-01-30T09:28:03;101133.00;;;7.53;100.00
34500;BME280;20745;50.882;6.962;2023-01-30T09:30:29;101147.16;;;7.55;100.00
34500;BME280;20745;50.882;6.962;2023-01-30T09:32:58;101136.09;;;7.58;100.00
34500;BME280;20745;50.882;6.962;2023-01-30T09:35:24;101122.31;;;7.61;100.00
34500;BME280;20745;50.882;6.962;2023-01-30T09:37:53;101117.09;;;7.59;100.00
34500;BME280;20745;50.882;6.962;2023-01-30T09:40:22;101107.06;;;7.62;100.00
34500;BME280;20745;50.882;6.962;2023-01-30T09:45:31;101124.97;;;7.71;100.00
34500;BME280;20745;50.882;6.962;2023-01-30T09:48:22;101122.63;;;7.76;100.00
34500;BME280;20745;50.882;6.962;2023-01-30T09:56:26;101120.50;;;7.97;100.00
34500;BME280;20745;50.882;6.962;2023-01-30T09:59:00;101116.25;;;7.94;100.00
34500;BME280;20745;50.882;6.962;2023-01-30T10:01:32;101123.50;;;7.94;100.00
34500;BME280;20745;50.882;6.962;2023-01-30T10:04:16;101138.78;;;7.93;100.00
34500;BME280;20745;50.882;6.962;2023-01-30T10:07:15;101122.69;;;8.01;100.00
34500;BME280;20745;50.882;6.962;2023-01-30T10:16:17;101127.25;;;8.01;100.00
34500;BME280;20745;50.882;6.962;2023-01-30T10:21:45;101145.53;;;8.15;100.00
34500;BME280;20745;50.882;6.962;2023-01-30T10:26:45;101149.91;;;8.33;100.00
34500;BME280;20745;50.882;6.962;2023-01-30T10:31:41;101152.34;;;8.44;100.00
34500;BME280;20745;50.882;6.962;2023-01-30T10:34:11;101154.88;;;8.46;100.00
34500;BME280;20745;50.882;6.962;2023-01-30T10:36:45;101148.50;;;8.47;100.00
34500;BME280;20745;50.882;6.962;2023-01-30T10:39:20;101145.81;;;8.47;100.00
34500;BME280;20745;50.882;6.962;2023-01-30T10:41:53;101147.81;;;8.45;100.00
34500;BME280;20745;50.882;6.962;2023-01-30T10:44:24;101151.19;;;8.47;100.00
34500;BME280;20745;50.882;6.962;2023-01-30T10:46:55;101151.88;;;8.49;100.00
34500;BME280;20745;50.882;6.962;2023-01-30T10:49:35;101159.63;;;8.52;100.00
34500;BME280;20745;50.882;6.962;2023-01-30T10:52:21;101142.16;;;8.56;100.00
34500;BME280;20745;50.882;6.962;2023-01-30T10:58:05;101155.00;;;8.62;100.00
34500;BME280;20745;50.882;6.962;2023-01-30T11:00:38;101153.34;;;8.69;100.00
34500;BME280;20745;50.882;6.962;2023-01-30T11:03:09;101164.44;;;8.66;100.00
34500;BME280;20745;50.882;6.962;2023-01-30T11:05:51;101153.78;;;8.56;100.00
34500;BME280;20745;50.882;6.962;2023-01-30T11:08:23;101171.44;;;8.59;100.00
34500;BME280;20745;50.882;6.962;2023-01-30T11:10:50;101143.91;;;8.39;100.00
34500;BME280;20745;50.882;6.962;2023-01-30T11:13:27;101158.38;;;8.64;100.00
34500;BME280;20745;50.882;6.962;2023-01-30T11:15:59;101164.94;;;8.61;100.00
34500;BME280;20745;50.882;6.962;2023-01-30T11:18:29;101174.22;;;8.67;100.00
34500;BME280;20745;50.882;6.962;2023-01-30T11:21:19;101178.22;;;8.63;100.00
34500;BME280;20745;50.882;6.962;2023-01-30T11:23:52;101176.06;;;8.66;100.00
34500;BME280;20745;50.882;6.962;2023-01-30T11:26:24;101171.28;;;8.60;100.00
34500;BME280;20745;50.882;6.962;2023-01-30T11:29:23;101147.06;;;8.60;100.00
34500;BME280;20745;50.882;6.962;2023-01-30T11:31:50;101159.84;;;8.58;100.00
34500;BME280;20745;50.882;6.962;2023-01-30T11:34:18;101160.69;;;8.59;100.00
34500;BME280;20745;50.882;6.962;2023-01-30T11:36:45;101170.25;;;8.53;100.00
34500;BME280;20745;50.882;6.962;2023-01-30T11:44:33;101180.34;;;8.51;100.00
34500;BME280;20745;50.882;6.962;2023-01-30T11:47:01;101166.50;;;8.46;100.00
34500;BME280;20745;50.882;6.962;2023-01-30T11:49:32;101168.47;;;8.44;100.00
34500;BME280;20745;50.882;6.962;2023-01-30T11:52:15;101159.28;;;8.47;100.00
34500;BME280;20745;50.882;6.962;2023-01-30T11:54:42;101142.66;;;8.51;100.00
34500;BME280;20745;50.882;6.962;2023-01-30T11:57:13;101147.38;;;8.57;100.00
34500;BME280;20745;50.882;6.962;2023-01-30T11:59:44;101157.00;;;8.60;100.00
34500;BME280;20745;50.882;6.962;2023-01-30T12:02:32;101167.44;;;8.63;100.00
34500;BME280;20745;50.882;6.962;2023-01-30T12:05:02;101144.75;;;8.65;100.00
34500;BME280;20745;50.882;6.962;2023-01-30T12:07:33;101149.84;;;8.68;100.00
34500;BME280;20745;50.882;6.962;2023-01-30T12:10:00;101148.66;;;8.71;100.00
34500;BME280;20745;50.882;6.962;2023-01-30T12:12:47;101150.88;;;8.75;100.00
34500;BME280;20745;50.882;6.962;2023-01-30T12:26:24;101139.78;;;8.53;100.00
34500;BME280;20745;50.882;6.962;2023-01-30T12:28:58;101181.63;;;8.73;100.00
34500;BME280;20745;50.882;6.962;2023-01-30T12:31:35;101155.72;;;8.72;100.00
34500;BME280;20745;50.882;6.962;2023-01-30T12:34:04;101163.97;;;8.70;100.00
34500;BME280;20745;50.882;6.962;2023-01-30T12:56:53;101178.91;;;8.65;100.00
34500;BME280;20745;50.882;6.962;2023-01-30T12:59:34;101184.59;;;8.62;100.00
34500;BME280;20745;50.882;6.962;2023-01-30T13:04:35;101192.69;;;8.62;100.00
34500;BME280;20745;50.882;6.962;2023-01-30T13:07:23;101201.31;;;8.65;100.00
34500;BME280;20745;50.882;6.962;2023-01-30T13:17:47;101222.72;;;8.75;100.00
34500;BME280;20745;50.882;6.962;2023-01-30T13:20:20;101195.84;;;8.83;100.00
34500;BME280;20745;50.882;6.962;2023-01-30T13:22:55;101193.00;;;8.84;100.00
34500;BME280;20745;50.882;6.962;2023-01-30T13:27:57;101214.03;;;8.81;100.00
34500;BME280;20745;50.882;6.962;2023-01-30T13:30:25;101212.50;;;8.78;100.00
34500;BME280;20745;50.882;6.962;2023-01-30T13:32:56;101220.03;;;8.75;100.00
34500;BME280;20745;50.882;6.962;2023-01-30T13:35:32;101228.28;;;8.73;100.00
34500;BME280;20745;50.882;6.962;2023-01-30T13:37:59;101232.50;;;8.76;100.00
34500;BME280;20745;50.882;6.962;2023-01-30T13:40:29;101236.59;;;8.80;100.00
34500;BME280;20745;50.882;6.962;2023-01-30T13:45:41;101241.22;;;8.70;100.00
34500;BME280;20745;50.882;6.962;2023-01-30T13:48:15;101248.44;;;8.69;100.00
34500;BME280;20745;50.882;6.962;2023-01-30T13:51:04;101255.66;;;8.69;100.00
34500;BME280;20745;50.882;6.962;2023-01-30T14:07:08;101268.97;;;8.70;100.00
34500;BME280;20745;50.882;6.962;2023-01-30T14:09:34;101274.91;;;8.74;100.00
34500;BME280;20745;50.882;6.962;2023-01-30T14:12:21;101283.97;;;8.73;100.00
34500;BME280;20745;50.882;6.962;2023-01-30T14:14:59;101278.44;;;8.74;100.00
34500;BME280;20745;50.882;6.962;2023-01-30T14:17:26;101283.66;;;8.76;100.00
34500;BME280;20745;50.882;6.962;2023-01-30T14:22:27;101290.13;;;8.83;100.00
34500;BME280;20745;50.882;6.962;2023-01-30T14:27:41;101299.59;;;8.87;100.00
34500;BME280;20745;50.882;6.962;2023-01-30T14:30:32;101303.81;;;8.89;100.00
34500;BME280;20745;50.882;6.962;2023-01-30T14:33:00;101298.75;;;8.86;100.00
34500;BME280;20745;50.882;6.962;2023-01-30T14:35:31;101297.56;;;8.89;100.00
34500;BME280;20745;50.882;6.962;2023-01-30T14:40:45;101306.28;;;8.83;100.00
34500;BME280;20745;50.882;6.962;2023-01-30T14:45:47;101309.31;;;8.80;100.00
34500;BME280;20745;50.882;6.962;2023-01-30T14:53:36;101308.22;;;8.73;100.00
34500;BME280;20745;50.882;6.962;2023-01-30T14:56:12;101317.69;;;8.77;100.00
34500;BME280;20745;50.882;6.962;2023-01-30T14:58:51;101306.22;;;8.75;100.00
34500;BME280;20745;50.882;6.962;2023-01-30T15:01:17;101324.06;;;8.76;100.00
34500;BME280;20745;50.882;6.962;2023-01-30T15:03:45;101332.16;;;8.76;100.00
34500;BME280;20745;50.882;6.962;2023-01-30T15:06:12;101331.16;;;8.77;100.00
34500;BME280;20745;50.882;6.962;2023-01-30T15:08:42;101336.56;;;8.77;100.00
34500;BME280;20745;50.882;6.962;2023-01-30T15:18:53;101358.41;;;8.74;100.00
34500;BME280;20745;50.882;6.962;2023-01-30T15:29:28;101366.06;;;8.69;100.00
34500;BME280;20745;50.882;6.962;2023-01-30T15:32:00;101363.03;;;8.64;100.00
34500;BME280;20745;50.882;6.962;2023-01-30T15:34:27;101374.75;;;8.63;100.00
34500;BME280;20745;50.882;6.962;2023-01-30T15:37:35;101379.47;;;8.61;100.00
34500;BME280;20745;50.882;6.962;2023-01-30T15:40:19;101394.78;;;8.60;100.00